METAR AND TAF INFORMATION
METAR FOR YMML
ADDS - METARS form results

(1422 UTC 20 May 2019)
Data provider http://aviationweather.gov/metar/data/
 
METAR text: YMML 201400Z 36011KT CAVOK 12/10 Q1021
Conditions at: YMML (MELBOURNE INTL A, AU) observed 1400 UTC 20 May 2019
Temperature: 12.0°C (54°F)
Dewpoint: 10.0°C (50°F) [RH = 88%]
Pressure (altimeter): 30.15 inches Hg (1021.0 mb)
Winds: from the N (360 degrees) at 13 MPH (11 knots; 5.7 m/s)
Visibility: 6 or more miles (10+ km)
Ceiling: ceiling and visibility are OK
Clouds: unknown
Weather: no significant weather observed at this time

METAR text: YMML 201330Z 35010KT CAVOK 13/10 Q1021 NOSIG
Conditions at: YMML (MELBOURNE INTL A, AU) observed 1330 UTC 20 May 2019
Temperature: 13.0°C (55°F)
Dewpoint: 10.0°C (50°F) [RH = 82%]
Pressure (altimeter): 30.15 inches Hg (1021.0 mb)
Winds: from the N (350 degrees) at 12 MPH (10 knots; 5.1 m/s)
Visibility: 6 or more miles (10+ km)
Ceiling: ceiling and visibility are OK
Clouds: unknown
Weather: no significant weather observed at this time

Forecast for: YMML (MELBOURNE INTL A, AU)
Text: TAF YMML 201117Z 2012/2118 35010KT CAVOK
Forecast period: 1200 UTC 20 May 2019 to 1800 UTC 21 May 2019
Forecast type: FROM: standard forecast or significant change
Winds: from the N (350 degrees) at 12 MPH (10 knots; 5.1 m/s)
Visibility: 6 or more miles 10+ km)
Ceiling: unknown
Clouds: missing
Weather: NSW  (no significant weather)

 AIRPORT MAP

 RUNWAY INFORMATION
Runway 09 Runway length 7500 ft Runway width 148 ft
Runway elevation 395 ft Runway displaced threshold 0 ft Runway heading 94
Runway 27 Runway length 7500 ft Runway width 148 ft
Runway elevation 407 ft Runway displaced threshold 0 ft Runway heading 274
Runway 16 Runway length 11998 ft Runway width 197 ft
Runway elevation 432 ft Runway displaced threshold 0 ft Runway heading 171
Runway 34 Runway length 11998 ft Runway width 197 ft
Runway elevation 330 ft Runway displaced threshold 0 ft Runway heading 351

 AIRPORT FREQUENCIES
Type APP Name APP Frequency 132 MHZ
Type ATIS Name ATIS Frequency 114.1 MHZ
Type CLD Name CLNC DEL Frequency 127.2 MHZ
Type DEP Name DEP Frequency 118.9 MHZ
Type GND Name GND Frequency 121.7 MHZ
Type TWR Name TWR Frequency 120.5 MHZ

 AIRPORT NEAR NAVIGATION AIDS
Type NDB Name Bolinda Frequency 362 KHZ
Type NDB Name Epping Frequency 377 KHZ
Type VOR-DME Name Melbourne Frequency 114100 KHZ
Type NDB Name Rockdale Frequency 338 KHZ



Copyright © 2011 - 2018 BirgenAir Virtual Airlines. All rights reserved. Developed by Goktug Unver